Airport View

Enter AWOS ICAO identifier for current METAR.

ex. KFNL

KTOC 191935Z AUTO 31009G22KT 10SM CLR 12/M12 A3001 RMK AO2 T01151118

19 Jan 2020 19:52

Frequency: 119.625

Phone: 706-297-7473

Other Area AWOS: KAJR - K18A - KCEU - KJCA

TAF KAND 191723Z 1918/2018 25010G18KT P6SM SKC FM200000 31006KT P6SM SKC FM200500 35004KT P6SM SKC FM201200 02004KT P6SM SKC